sensor_id;sensor_type;location;lat;lon;timestamp;P1;durP1;ratioP1;P2;durP2;ratioP2
72929;SDS011;61073;54.260;20.816;2023-01-09T00:00:07;33.88;;;14.98;;
72929;SDS011;61073;54.260;20.816;2023-01-09T00:02:35;33.25;;;14.93;;
72929;SDS011;61073;54.260;20.816;2023-01-09T00:05:09;34.80;;;13.55;;
72929;SDS011;61073;54.260;20.816;2023-01-09T00:07:37;28.27;;;13.00;;
72929;SDS011;61073;54.260;20.816;2023-01-09T00:10:04;35.55;;;14.82;;
72929;SDS011;61073;54.260;20.816;2023-01-09T00:12:32;34.95;;;14.88;;
72929;SDS011;61073;54.260;20.816;2023-01-09T00:14:59;41.22;;;16.23;;
72929;SDS011;61073;54.260;20.816;2023-01-09T00:17:27;32.13;;;13.30;;
72929;SDS011;61073;54.260;20.816;2023-01-09T00:19:54;33.58;;;13.75;;
72929;SDS011;61073;54.260;20.816;2023-01-09T00:22:21;32.55;;;13.23;;
72929;SDS011;61073;54.260;20.816;2023-01-09T00:24:48;39.92;;;16.10;;
72929;SDS011;61073;54.260;20.816;2023-01-09T00:27:15;38.55;;;14.38;;
72929;SDS011;61073;54.260;20.816;2023-01-09T00:29:43;39.05;;;14.57;;
72929;SDS011;61073;54.260;20.816;2023-01-09T00:32:11;41.22;;;15.68;;
72929;SDS011;61073;54.260;20.816;2023-01-09T00:34:38;36.97;;;14.63;;
72929;SDS011;61073;54.260;20.816;2023-01-09T00:37:05;40.60;;;14.85;;
72929;SDS011;61073;54.260;20.816;2023-01-09T00:39:37;32.17;;;13.57;;
72929;SDS011;61073;54.260;20.816;2023-01-09T00:42:05;38.28;;;13.77;;
72929;SDS011;61073;54.260;20.816;2023-01-09T00:44:33;41.60;;;15.27;;
72929;SDS011;61073;54.260;20.816;2023-01-09T00:47:04;40.50;;;15.05;;
72929;SDS011;61073;54.260;20.816;2023-01-09T00:49:33;41.30;;;16.13;;
72929;SDS011;61073;54.260;20.816;2023-01-09T00:52:02;41.00;;;16.95;;
72929;SDS011;61073;54.260;20.816;2023-01-09T00:54:31;47.22;;;19.08;;
72929;SDS011;61073;54.260;20.816;2023-01-09T00:56:58;34.75;;;15.32;;
72929;SDS011;61073;54.260;20.816;2023-01-09T00:59:26;40.42;;;15.30;;
72929;SDS011;61073;54.260;20.816;2023-01-09T01:01:53;48.30;;;16.80;;
72929;SDS011;61073;54.260;20.816;2023-01-09T01:04:20;53.35;;;20.23;;
72929;SDS011;61073;54.260;20.816;2023-01-09T01:07:06;44.80;;;15.48;;
72929;SDS011;61073;54.260;20.816;2023-01-09T01:09:52;49.72;;;17.13;;
72929;SDS011;61073;54.260;20.816;2023-01-09T01:12:19;48.28;;;16.63;;
72929;SDS011;61073;54.260;20.816;2023-01-09T01:14:46;38.40;;;13.75;;
72929;SDS011;61073;54.260;20.816;2023-01-09T01:17:14;44.95;;;14.93;;
72929;SDS011;61073;54.260;20.816;2023-01-09T01:19:41;41.65;;;15.00;;
72929;SDS011;61073;54.260;20.816;2023-01-09T01:22:09;43.05;;;15.02;;
72929;SDS011;61073;54.260;20.816;2023-01-09T01:24:36;38.70;;;13.48;;
72929;SDS011;61073;54.260;20.816;2023-01-09T01:27:03;42.83;;;14.93;;
72929;SDS011;61073;54.260;20.816;2023-01-09T01:29:31;40.45;;;14.90;;
72929;SDS011;61073;54.260;20.816;2023-01-09T01:31:58;46.63;;;15.63;;
72929;SDS011;61073;54.260;20.816;2023-01-09T01:34:27;38.88;;;14.57;;
72929;SDS011;61073;54.260;20.816;2023-01-09T01:36:54;45.05;;;16.67;;
72929;SDS011;61073;54.260;20.816;2023-01-09T01:39:21;39.63;;;15.13;;
72929;SDS011;61073;54.260;20.816;2023-01-09T01:41:48;42.70;;;15.10;;
72929;SDS011;61073;54.260;20.816;2023-01-09T01:47:01;38.47;;;13.93;;
72929;SDS011;61073;54.260;20.816;2023-01-09T01:49:28;36.88;;;13.45;;
72929;SDS011;61073;54.260;20.816;2023-01-09T01:51:55;39.45;;;14.60;;
72929;SDS011;61073;54.260;20.816;2023-01-09T01:54:23;30.33;;;12.18;;
72929;SDS011;61073;54.260;20.816;2023-01-09T01:56:52;37.97;;;13.65;;
72929;SDS011;61073;54.260;20.816;2023-01-09T01:59:25;35.63;;;12.80;;
72929;SDS011;61073;54.260;20.816;2023-01-09T02:01:55;34.58;;;13.70;;
72929;SDS011;61073;54.260;20.816;2023-01-09T02:04:24;40.45;;;14.27;;
72929;SDS011;61073;54.260;20.816;2023-01-09T02:06:52;46.45;;;14.48;;
72929;SDS011;61073;54.260;20.816;2023-01-09T02:09:19;38.83;;;12.70;;
72929;SDS011;61073;54.260;20.816;2023-01-09T02:11:49;38.63;;;16.15;;
72929;SDS011;61073;54.260;20.816;2023-01-09T02:14:18;45.10;;;18.08;;
72929;SDS011;61073;54.260;20.816;2023-01-09T02:41:12;41.67;;;15.43;;
72929;SDS011;61073;54.260;20.816;2023-01-09T02:43:42;46.30;;;16.30;;
72929;SDS011;61073;54.260;20.816;2023-01-09T02:46:18;36.17;;;14.57;;
72929;SDS011;61073;54.260;20.816;2023-01-09T02:51:20;33.92;;;12.68;;
72929;SDS011;61073;54.260;20.816;2023-01-09T02:53:57;48.50;;;18.02;;
72929;SDS011;61073;54.260;20.816;2023-01-09T03:10:20;38.45;;;14.85;;
72929;SDS011;61073;54.260;20.816;2023-01-09T03:12:49;39.33;;;13.55;;
72929;SDS011;61073;54.260;20.816;2023-01-09T03:15:17;46.53;;;15.27;;
72929;SDS011;61073;54.260;20.816;2023-01-09T03:17:46;38.22;;;14.02;;
72929;SDS011;61073;54.260;20.816;2023-01-09T03:25:27;40.83;;;15.15;;
72929;SDS011;61073;54.260;20.816;2023-01-09T03:27:55;34.20;;;15.20;;
72929;SDS011;61073;54.260;20.816;2023-01-09T03:30:23;38.67;;;15.18;;
72929;SDS011;61073;54.260;20.816;2023-01-09T03:32:51;46.00;;;14.85;;
72929;SDS011;61073;54.260;20.816;2023-01-09T03:35:18;40.75;;;14.63;;
72929;SDS011;61073;54.260;20.816;2023-01-09T03:37:45;38.80;;;15.65;;
72929;SDS011;61073;54.260;20.816;2023-01-09T03:40:12;42.08;;;15.30;;
72929;SDS011;61073;54.260;20.816;2023-01-09T03:42:39;44.30;;;15.25;;
72929;SDS011;61073;54.260;20.816;2023-01-09T03:45:07;38.25;;;15.63;;
72929;SDS011;61073;54.260;20.816;2023-01-09T03:47:34;43.55;;;16.08;;
72929;SDS011;61073;54.260;20.816;2023-01-09T03:50:01;39.92;;;15.35;;
72929;SDS011;61073;54.260;20.816;2023-01-09T03:52:28;43.05;;;17.65;;
72929;SDS011;61073;54.260;20.816;2023-01-09T03:54:55;35.50;;;16.13;;
72929;SDS011;61073;54.260;20.816;2023-01-09T03:57:22;40.42;;;14.88;;
72929;SDS011;61073;54.260;20.816;2023-01-09T03:59:50;45.72;;;19.30;;
72929;SDS011;61073;54.260;20.816;2023-01-09T04:02:17;47.78;;;16.48;;
72929;SDS011;61073;54.260;20.816;2023-01-09T04:07:11;39.97;;;14.82;;
72929;SDS011;61073;54.260;20.816;2023-01-09T04:09:38;39.53;;;15.65;;
72929;SDS011;61073;54.260;20.816;2023-01-09T04:12:05;41.17;;;15.55;;
72929;SDS011;61073;54.260;20.816;2023-01-09T04:14:32;38.05;;;15.43;;
72929;SDS011;61073;54.260;20.816;2023-01-09T04:16:59;35.78;;;14.57;;
72929;SDS011;61073;54.260;20.816;2023-01-09T04:19:26;41.70;;;16.33;;
72929;SDS011;61073;54.260;20.816;2023-01-09T04:21:54;41.92;;;14.00;;
72929;SDS011;61073;54.260;20.816;2023-01-09T04:24:21;42.97;;;15.88;;
72929;SDS011;61073;54.260;20.816;2023-01-09T04:26:48;39.10;;;15.73;;
72929;SDS011;61073;54.260;20.816;2023-01-09T04:29:15;35.38;;;13.18;;
72929;SDS011;61073;54.260;20.816;2023-01-09T04:31:43;48.17;;;15.18;;
72929;SDS011;61073;54.260;20.816;2023-01-09T04:34:10;39.85;;;15.15;;
72929;SDS011;61073;54.260;20.816;2023-01-09T04:36:37;40.10;;;15.20;;
72929;SDS011;61073;54.260;20.816;2023-01-09T04:39:05;37.65;;;14.43;;
72929;SDS011;61073;54.260;20.816;2023-01-09T04:41:33;38.60;;;15.13;;
72929;SDS011;61073;54.260;20.816;2023-01-09T04:44:20;38.97;;;15.20;;
72929;SDS011;61073;54.260;20.816;2023-01-09T04:46:47;42.15;;;15.48;;
72929;SDS011;61073;54.260;20.816;2023-01-09T04:49:15;38.72;;;15.35;;
72929;SDS011;61073;54.260;20.816;2023-01-09T04:51:42;44.28;;;15.77;;
72929;SDS011;61073;54.260;20.816;2023-01-09T04:54:09;39.20;;;15.23;;
72929;SDS011;61073;54.260;20.816;2023-01-09T04:56:36;43.72;;;17.38;;
72929;SDS011;61073;54.260;20.816;2023-01-09T04:59:04;37.60;;;14.95;;
72929;SDS011;61073;54.260;20.816;2023-01-09T05:01:32;45.05;;;16.60;;
72929;SDS011;61073;54.260;20.816;2023-01-09T05:03:59;49.08;;;18.67;;
72929;SDS011;61073;54.260;20.816;2023-01-09T05:06:27;57.08;;;21.27;;
72929;SDS011;61073;54.260;20.816;2023-01-09T05:08:54;48.63;;;18.73;;
72929;SDS011;61073;54.260;20.816;2023-01-09T05:11:22;60.60;;;20.52;;
72929;SDS011;61073;54.260;20.816;2023-01-09T05:13:50;58.45;;;22.50;;
72929;SDS011;61073;54.260;20.816;2023-01-09T05:16:17;54.95;;;20.27;;
72929;SDS011;61073;54.260;20.816;2023-01-09T05:18:45;49.90;;;18.77;;
72929;SDS011;61073;54.260;20.816;2023-01-09T05:21:12;54.55;;;19.83;;
72929;SDS011;61073;54.260;20.816;2023-01-09T05:23:40;52.08;;;17.77;;
72929;SDS011;61073;54.260;20.816;2023-01-09T05:26:07;47.55;;;18.38;;
72929;SDS011;61073;54.260;20.816;2023-01-09T05:28:34;55.78;;;21.92;;
72929;SDS011;61073;54.260;20.816;2023-01-09T05:31:01;50.70;;;18.95;;
72929;SDS011;61073;54.260;20.816;2023-01-09T05:33:28;52.45;;;19.70;;
72929;SDS011;61073;54.260;20.816;2023-01-09T05:35:55;48.70;;;20.25;;
72929;SDS011;61073;54.260;20.816;2023-01-09T05:38:22;47.40;;;18.65;;
72929;SDS011;61073;54.260;20.816;2023-01-09T05:40:49;50.97;;;18.42;;
72929;SDS011;61073;54.260;20.816;2023-01-09T05:43:17;41.28;;;16.23;;
72929;SDS011;61073;54.260;20.816;2023-01-09T05:45:44;46.55;;;18.00;;
72929;SDS011;61073;54.260;20.816;2023-01-09T05:48:11;41.47;;;17.38;;
72929;SDS011;61073;54.260;20.816;2023-01-09T05:50:38;44.10;;;17.73;;
72929;SDS011;61073;54.260;20.816;2023-01-09T05:53:05;41.15;;;16.92;;
72929;SDS011;61073;54.260;20.816;2023-01-09T05:55:32;41.42;;;16.50;;
72929;SDS011;61073;54.260;20.816;2023-01-09T05:58:00;39.55;;;15.88;;
72929;SDS011;61073;54.260;20.816;2023-01-09T06:00:27;45.55;;;16.90;;
72929;SDS011;61073;54.260;20.816;2023-01-09T06:02:54;39.70;;;15.00;;
72929;SDS011;61073;54.260;20.816;2023-01-09T06:05:21;40.10;;;16.77;;
72929;SDS011;61073;54.260;20.816;2023-01-09T06:07:48;40.38;;;16.90;;
72929;SDS011;61073;54.260;20.816;2023-01-09T06:10:16;60.90;;;22.60;;
72929;SDS011;61073;54.260;20.816;2023-01-09T06:12:47;56.70;;;20.17;;
72929;SDS011;61073;54.260;20.816;2023-01-09T06:15:14;41.78;;;17.00;;
72929;SDS011;61073;54.260;20.816;2023-01-09T06:17:42;44.65;;;17.25;;
72929;SDS011;61073;54.260;20.816;2023-01-09T06:20:09;42.75;;;15.82;;
72929;SDS011;61073;54.260;20.816;2023-01-09T06:22:37;56.60;;;20.75;;
72929;SDS011;61073;54.260;20.816;2023-01-09T06:25:04;76.68;;;26.95;;
72929;SDS011;61073;54.260;20.816;2023-01-09T06:27:31;75.75;;;27.45;;
72929;SDS011;61073;54.260;20.816;2023-01-09T06:29:59;71.47;;;25.27;;
72929;SDS011;61073;54.260;20.816;2023-01-09T06:32:26;50.72;;;20.30;;
72929;SDS011;61073;54.260;20.816;2023-01-09T06:34:53;45.83;;;19.25;;
72929;SDS011;61073;54.260;20.816;2023-01-09T06:37:20;46.60;;;19.27;;
72929;SDS011;61073;54.260;20.816;2023-01-09T06:39:47;42.92;;;16.83;;
72929;SDS011;61073;54.260;20.816;2023-01-09T06:42:14;48.85;;;18.33;;
72929;SDS011;61073;54.260;20.816;2023-01-09T06:44:41;44.53;;;17.52;;
72929;SDS011;61073;54.260;20.816;2023-01-09T06:47:08;42.28;;;16.38;;
72929;SDS011;61073;54.260;20.816;2023-01-09T06:49:36;41.22;;;16.60;;
72929;SDS011;61073;54.260;20.816;2023-01-09T06:52:03;44.50;;;16.95;;
72929;SDS011;61073;54.260;20.816;2023-01-09T06:54:33;49.75;;;18.75;;
72929;SDS011;61073;54.260;20.816;2023-01-09T06:57:00;49.15;;;19.88;;
72929;SDS011;61073;54.260;20.816;2023-01-09T06:59:27;59.78;;;23.05;;
72929;SDS011;61073;54.260;20.816;2023-01-09T07:01:54;72.50;;;25.63;;
72929;SDS011;61073;54.260;20.816;2023-01-09T07:04:24;73.60;;;26.58;;
72929;SDS011;61073;54.260;20.816;2023-01-09T07:06:51;58.00;;;22.30;;
72929;SDS011;61073;54.260;20.816;2023-01-09T07:09:18;49.45;;;21.42;;
72929;SDS011;61073;54.260;20.816;2023-01-09T07:11:47;54.28;;;22.85;;
72929;SDS011;61073;54.260;20.816;2023-01-09T07:14:14;48.58;;;20.90;;
72929;SDS011;61073;54.260;20.816;2023-01-09T07:16:41;48.03;;;20.00;;
72929;SDS011;61073;54.260;20.816;2023-01-09T07:19:08;43.38;;;16.70;;
72929;SDS011;61073;54.260;20.816;2023-01-09T07:21:35;44.40;;;16.55;;
72929;SDS011;61073;54.260;20.816;2023-01-09T07:24:03;36.60;;;16.00;;
72929;SDS011;61073;54.260;20.816;2023-01-09T07:26:30;43.03;;;16.42;;
72929;SDS011;61073;54.260;20.816;2023-01-09T07:28:57;39.13;;;16.73;;
72929;SDS011;61073;54.260;20.816;2023-01-09T07:31:24;37.75;;;16.60;;
72929;SDS011;61073;54.260;20.816;2023-01-09T07:33:51;43.72;;;16.90;;
72929;SDS011;61073;54.260;20.816;2023-01-09T07:36:19;41.30;;;16.70;;
72929;SDS011;61073;54.260;20.816;2023-01-09T07:38:47;35.80;;;15.90;;
72929;SDS011;61073;54.260;20.816;2023-01-09T07:41:14;37.40;;;15.63;;
72929;SDS011;61073;54.260;20.816;2023-01-09T07:43:41;40.58;;;16.45;;
72929;SDS011;61073;54.260;20.816;2023-01-09T07:46:08;42.65;;;16.52;;
72929;SDS011;61073;54.260;20.816;2023-01-09T07:48:36;37.08;;;15.20;;
72929;SDS011;61073;54.260;20.816;2023-01-09T07:51:03;39.80;;;15.85;;
72929;SDS011;61073;54.260;20.816;2023-01-09T07:53:31;39.55;;;16.63;;
72929;SDS011;61073;54.260;20.816;2023-01-09T07:55:58;42.38;;;15.73;;
72929;SDS011;61073;54.260;20.816;2023-01-09T07:58:25;39.53;;;15.90;;
72929;SDS011;61073;54.260;20.816;2023-01-09T08:00:52;39.17;;;16.00;;
72929;SDS011;61073;54.260;20.816;2023-01-09T08:03:19;41.92;;;16.55;;
72929;SDS011;61073;54.260;20.816;2023-01-09T08:05:47;39.40;;;15.27;;
72929;SDS011;61073;54.260;20.816;2023-01-09T08:08:17;34.88;;;15.75;;
72929;SDS011;61073;54.260;20.816;2023-01-09T08:10:44;38.20;;;15.98;;
72929;SDS011;61073;54.260;20.816;2023-01-09T08:13:12;42.72;;;15.63;;
72929;SDS011;61073;54.260;20.816;2023-01-09T08:15:39;44.70;;;16.05;;
72929;SDS011;61073;54.260;20.816;2023-01-09T08:18:06;48.90;;;17.98;;
72929;SDS011;61073;54.260;20.816;2023-01-09T08:20:33;56.30;;;20.25;;
72929;SDS011;61073;54.260;20.816;2023-01-09T08:23:01;48.60;;;17.10;;
72929;SDS011;61073;54.260;20.816;2023-01-09T08:27:55;41.15;;;15.30;;
72929;SDS011;61073;54.260;20.816;2023-01-09T08:30:22;45.72;;;17.67;;
72929;SDS011;61073;54.260;20.816;2023-01-09T08:32:50;34.47;;;14.63;;
72929;SDS011;61073;54.260;20.816;2023-01-09T08:35:18;49.15;;;16.52;;
72929;SDS011;61073;54.260;20.816;2023-01-09T08:37:46;41.38;;;17.27;;
72929;SDS011;61073;54.260;20.816;2023-01-09T08:40:14;46.38;;;16.13;;
72929;SDS011;61073;54.260;20.816;2023-01-09T08:42:41;40.30;;;15.98;;
72929;SDS011;61073;54.260;20.816;2023-01-09T08:45:28;45.00;;;18.38;;
72929;SDS011;61073;54.260;20.816;2023-01-09T08:48:14;46.00;;;20.63;;
72929;SDS011;61073;54.260;20.816;2023-01-09T08:50:42;41.50;;;17.10;;
72929;SDS011;61073;54.260;20.816;2023-01-09T08:53:09;38.15;;;17.65;;
72929;SDS011;61073;54.260;20.816;2023-01-09T08:55:37;35.17;;;14.80;;
72929;SDS011;61073;54.260;20.816;2023-01-09T08:58:04;40.95;;;16.90;;
72929;SDS011;61073;54.260;20.816;2023-01-09T09:00:31;47.72;;;18.63;;
72929;SDS011;61073;54.260;20.816;2023-01-09T09:02:59;40.22;;;17.27;;
72929;SDS011;61073;54.260;20.816;2023-01-09T09:05:27;44.53;;;18.80;;
72929;SDS011;61073;54.260;20.816;2023-01-09T09:10:23;39.20;;;15.70;;
72929;SDS011;61073;54.260;20.816;2023-01-09T09:12:52;37.90;;;16.98;;
72929;SDS011;61073;54.260;20.816;2023-01-09T09:15:20;37.80;;;15.32;;
72929;SDS011;61073;54.260;20.816;2023-01-09T09:17:55;35.22;;;14.75;;
72929;SDS011;61073;54.260;20.816;2023-01-09T09:20:23;38.20;;;16.23;;
72929;SDS011;61073;54.260;20.816;2023-01-09T09:22:51;60.58;;;22.60;;
72929;SDS011;61073;54.260;20.816;2023-01-09T09:25:18;50.45;;;20.30;;
72929;SDS011;61073;54.260;20.816;2023-01-09T09:27:46;46.70;;;18.15;;
72929;SDS011;61073;54.260;20.816;2023-01-09T09:30:14;54.15;;;20.30;;
72929;SDS011;61073;54.260;20.816;2023-01-09T09:32:41;53.75;;;20.17;;
72929;SDS011;61073;54.260;20.816;2023-01-09T09:35:08;46.85;;;18.17;;
72929;SDS011;61073;54.260;20.816;2023-01-09T09:37:36;67.15;;;23.35;;
72929;SDS011;61073;54.260;20.816;2023-01-09T09:40:04;96.68;;;32.67;;
72929;SDS011;61073;54.260;20.816;2023-01-09T09:55:58;57.05;;;20.85;;
72929;SDS011;61073;54.260;20.816;2023-01-09T09:58:28;52.33;;;19.00;;
72929;SDS011;61073;54.260;20.816;2023-01-09T10:00:57;51.00;;;17.92;;
72929;SDS011;61073;54.260;20.816;2023-01-09T10:06:14;46.10;;;16.55;;
72929;SDS011;61073;54.260;20.816;2023-01-09T10:08:52;49.80;;;17.90;;
72929;SDS011;61073;54.260;20.816;2023-01-09T10:11:27;37.03;;;14.98;;
72929;SDS011;61073;54.260;20.816;2023-01-09T10:13:55;46.08;;;16.05;;
72929;SDS011;61073;54.260;20.816;2023-01-09T10:26:46;55.10;;;20.05;;
72929;SDS011;61073;54.260;20.816;2023-01-09T10:37:24;48.97;;;18.33;;
72929;SDS011;61073;54.260;20.816;2023-01-09T10:42:25;45.15;;;18.20;;
72929;SDS011;61073;54.260;20.816;2023-01-09T10:47:44;51.00;;;17.85;;
72929;SDS011;61073;54.260;20.816;2023-01-09T10:52:41;41.88;;;16.13;;
72929;SDS011;61073;54.260;20.816;2023-01-09T10:55:16;37.72;;;15.40;;
72929;SDS011;61073;54.260;20.816;2023-01-09T10:57:47;58.72;;;21.52;;
72929;SDS011;61073;54.260;20.816;2023-01-09T11:00:19;55.78;;;22.33;;
72929;SDS011;61073;54.260;20.816;2023-01-09T11:02:48;46.80;;;19.10;;
72929;SDS011;61073;54.260;20.816;2023-01-09T11:05:18;47.58;;;17.65;;
72929;SDS011;61073;54.260;20.816;2023-01-09T11:07:48;48.75;;;18.50;;
72929;SDS011;61073;54.260;20.816;2023-01-09T11:10:16;47.08;;;19.25;;
72929;SDS011;61073;54.260;20.816;2023-01-09T11:12:43;59.60;;;21.70;;
72929;SDS011;61073;54.260;20.816;2023-01-09T11:17:48;56.55;;;20.92;;
72929;SDS011;61073;54.260;20.816;2023-01-09T11:20:19;50.58;;;19.83;;
72929;SDS011;61073;54.260;20.816;2023-01-09T11:22:51;49.78;;;18.13;;
72929;SDS011;61073;54.260;20.816;2023-01-09T11:25:21;45.33;;;16.83;;
72929;SDS011;61073;54.260;20.816;2023-01-09T11:30:35;38.55;;;16.45;;
72929;SDS011;61073;54.260;20.816;2023-01-09T11:35:57;49.20;;;17.55;;
72929;SDS011;61073;54.260;20.816;2023-01-09T11:38:25;42.28;;;16.90;;
72929;SDS011;61073;54.260;20.816;2023-01-09T11:40:54;35.40;;;15.65;;
72929;SDS011;61073;54.260;20.816;2023-01-09T11:43:27;47.72;;;17.35;;
72929;SDS011;61073;54.260;20.816;2023-01-09T11:45:56;35.10;;;14.95;;
72929;SDS011;61073;54.260;20.816;2023-01-09T11:48:27;44.42;;;17.55;;
72929;SDS011;61073;54.260;20.816;2023-01-09T11:50:57;58.92;;;21.92;;
72929;SDS011;61073;54.260;20.816;2023-01-09T11:53:25;50.90;;;19.92;;
72929;SDS011;61073;54.260;20.816;2023-01-09T11:58:38;40.70;;;16.38;;
72929;SDS011;61073;54.260;20.816;2023-01-09T12:09:05;41.80;;;16.10;;
72929;SDS011;61073;54.260;20.816;2023-01-09T12:53:54;39.40;;;16.40;;
72929;SDS011;61073;54.260;20.816;2023-01-09T12:59:53;41.90;;;15.98;;
72929;SDS011;61073;54.260;20.816;2023-01-09T13:04:31;40.60;;;15.52;;
72929;SDS011;61073;54.260;20.816;2023-01-09T13:07:02;41.10;;;15.75;;
72929;SDS011;61073;54.260;20.816;2023-01-09T13:19:50;35.42;;;13.90;;
72929;SDS011;61073;54.260;20.816;2023-01-09T13:22:19;40.08;;;16.05;;
72929;SDS011;61073;54.260;20.816;2023-01-09T13:27:15;35.85;;;14.15;;
72929;SDS011;61073;54.260;20.816;2023-01-09T13:29:44;36.30;;;14.13;;
72929;SDS011;61073;54.260;20.816;2023-01-09T13:37:30;32.72;;;13.95;;
72929;SDS011;61073;54.260;20.816;2023-01-09T13:39:59;39.05;;;15.07;;
72929;SDS011;61073;54.260;20.816;2023-01-09T13:42:27;34.55;;;12.90;;
72929;SDS011;61073;54.260;20.816;2023-01-09T13:47:43;30.52;;;13.18;;
72929;SDS011;61073;54.260;20.816;2023-01-09T13:52:38;31.55;;;15.13;;
72929;SDS011;61073;54.260;20.816;2023-01-09T13:58:13;28.88;;;13.48;;
72929;SDS011;61073;54.260;20.816;2023-01-09T14:08:01;31.35;;;12.50;;
72929;SDS011;61073;54.260;20.816;2023-01-09T14:10:34;38.90;;;14.15;;
72929;SDS011;61073;54.260;20.816;2023-01-09T14:15:49;32.83;;;12.80;;
72929;SDS011;61073;54.260;20.816;2023-01-09T14:18:24;35.15;;;13.43;;
72929;SDS011;61073;54.260;20.816;2023-01-09T14:23:28;33.00;;;12.45;;
72929;SDS011;61073;54.260;20.816;2023-01-09T14:26:22;32.92;;;13.13;;
72929;SDS011;61073;54.260;20.816;2023-01-09T14:28:50;29.33;;;12.63;;
72929;SDS011;61073;54.260;20.816;2023-01-09T14:36:56;27.83;;;13.20;;
72929;SDS011;61073;54.260;20.816;2023-01-09T14:39:25;32.42;;;12.68;;
72929;SDS011;61073;54.260;20.816;2023-01-09T14:41:55;31.63;;;12.18;;
72929;SDS011;61073;54.260;20.816;2023-01-09T14:49:45;27.98;;;12.10;;
72929;SDS011;61073;54.260;20.816;2023-01-09T14:52:19;29.25;;;12.50;;
72929;SDS011;61073;54.260;20.816;2023-01-09T15:00:04;31.58;;;13.40;;
72929;SDS011;61073;54.260;20.816;2023-01-09T15:02:33;38.15;;;13.38;;
72929;SDS011;61073;54.260;20.816;2023-01-09T15:05:06;33.75;;;13.35;;
72929;SDS011;61073;54.260;20.816;2023-01-09T15:07:35;34.22;;;12.95;;
72929;SDS011;61073;54.260;20.816;2023-01-09T15:10:19;28.15;;;12.50;;
72929;SDS011;61073;54.260;20.816;2023-01-09T15:12:47;37.65;;;14.32;;
72929;SDS011;61073;54.260;20.816;2023-01-09T15:15:15;32.55;;;14.43;;
72929;SDS011;61073;54.260;20.816;2023-01-09T15:17:53;31.80;;;13.90;;
72929;SDS011;61073;54.260;20.816;2023-01-09T15:22:50;33.75;;;12.68;;
72929;SDS011;61073;54.260;20.816;2023-01-09T15:25:27;35.60;;;14.18;;
72929;SDS011;61073;54.260;20.816;2023-01-09T15:30:53;44.13;;;15.40;;
72929;SDS011;61073;54.260;20.816;2023-01-09T15:33:20;37.13;;;14.77;;
72929;SDS011;61073;54.260;20.816;2023-01-09T15:35:48;40.08;;;14.63;;
72929;SDS011;61073;54.260;20.816;2023-01-09T15:38:19;36.80;;;13.55;;
72929;SDS011;61073;54.260;20.816;2023-01-09T15:40:53;32.80;;;12.80;;
72929;SDS011;61073;54.260;20.816;2023-01-09T15:43:21;36.95;;;13.23;;
72929;SDS011;61073;54.260;20.816;2023-01-09T15:45:49;29.73;;;12.60;;
72929;SDS011;61073;54.260;20.816;2023-01-09T15:50:51;34.25;;;13.70;;
72929;SDS011;61073;54.260;20.816;2023-01-09T15:53:19;30.00;;;12.32;;
72929;SDS011;61073;54.260;20.816;2023-01-09T15:56:11;28.20;;;11.88;;
72929;SDS011;61073;54.260;20.816;2023-01-09T15:58:38;27.52;;;11.60;;
72929;SDS011;61073;54.260;20.816;2023-01-09T16:01:06;25.77;;;11.00;;
72929;SDS011;61073;54.260;20.816;2023-01-09T16:03:44;23.80;;;11.63;;
72929;SDS011;61073;54.260;20.816;2023-01-09T16:06:30;27.85;;;11.85;;
72929;SDS011;61073;54.260;20.816;2023-01-09T16:08:58;27.60;;;11.45;;
72929;SDS011;61073;54.260;20.816;2023-01-09T16:16:44;24.80;;;11.05;;
72929;SDS011;61073;54.260;20.816;2023-01-09T16:22:00;20.65;;;9.88;;
72929;SDS011;61073;54.260;20.816;2023-01-09T16:24:33;23.52;;;10.70;;
72929;SDS011;61073;54.260;20.816;2023-01-09T16:29:50;22.63;;;10.63;;
72929;SDS011;61073;54.260;20.816;2023-01-09T16:32:24;22.73;;;10.45;;
72929;SDS011;61073;54.260;20.816;2023-01-09T16:34:57;23.08;;;10.43;;
72929;SDS011;61073;54.260;20.816;2023-01-09T16:37:24;23.05;;;10.93;;
72929;SDS011;61073;54.260;20.816;2023-01-09T16:42:38;21.38;;;10.65;;
72929;SDS011;61073;54.260;20.816;2023-01-09T16:45:24;21.35;;;9.20;;
72929;SDS011;61073;54.260;20.816;2023-01-09T16:47:51;19.90;;;9.93;;
72929;SDS011;61073;54.260;20.816;2023-01-09T16:50:18;18.30;;;10.30;;
72929;SDS011;61073;54.260;20.816;2023-01-09T16:52:46;20.20;;;10.38;;
72929;SDS011;61073;54.260;20.816;2023-01-09T16:55:13;24.25;;;10.43;;
72929;SDS011;61073;54.260;20.816;2023-01-09T16:57:40;22.92;;;11.07;;
72929;SDS011;61073;54.260;20.816;2023-01-09T17:00:18;24.50;;;12.18;;
72929;SDS011;61073;54.260;20.816;2023-01-09T17:02:46;19.27;;;10.80;;
72929;SDS011;61073;54.260;20.816;2023-01-09T17:05:13;21.35;;;10.73;;
72929;SDS011;61073;54.260;20.816;2023-01-09T17:07:41;19.30;;;10.30;;
72929;SDS011;61073;54.260;20.816;2023-01-09T17:10:14;19.77;;;10.45;;
72929;SDS011;61073;54.260;20.816;2023-01-09T17:12:45;22.65;;;11.68;;
72929;SDS011;61073;54.260;20.816;2023-01-09T17:15:12;22.92;;;11.57;;
72929;SDS011;61073;54.260;20.816;2023-01-09T17:17:39;18.23;;;8.82;;
72929;SDS011;61073;54.260;20.816;2023-01-09T17:20:13;16.42;;;8.63;;
72929;SDS011;61073;54.260;20.816;2023-01-09T17:22:40;17.42;;;8.77;;
72929;SDS011;61073;54.260;20.816;2023-01-09T17:25:14;18.90;;;9.48;;
72929;SDS011;61073;54.260;20.816;2023-01-09T17:28:00;16.00;;;9.55;;
72929;SDS011;61073;54.260;20.816;2023-01-09T17:30:45;19.75;;;9.85;;
72929;SDS011;61073;54.260;20.816;2023-01-09T17:33:16;27.67;;;13.95;;
72929;SDS011;61073;54.260;20.816;2023-01-09T17:35:43;20.92;;;10.10;;
72929;SDS011;61073;54.260;20.816;2023-01-09T17:38:14;17.77;;;9.38;;
72929;SDS011;61073;54.260;20.816;2023-01-09T17:40:42;16.40;;;8.95;;
72929;SDS011;61073;54.260;20.816;2023-01-09T17:43:09;21.00;;;9.52;;
72929;SDS011;61073;54.260;20.816;2023-01-09T17:45:37;16.17;;;8.73;;
72929;SDS011;61073;54.260;20.816;2023-01-09T17:48:08;15.40;;;9.25;;
72929;SDS011;61073;54.260;20.816;2023-01-09T17:50:38;19.35;;;7.93;;
72929;SDS011;61073;54.260;20.816;2023-01-09T17:53:05;19.83;;;8.90;;
72929;SDS011;61073;54.260;20.816;2023-01-09T17:55:32;15.98;;;8.02;;
72929;SDS011;61073;54.260;20.816;2023-01-09T17:58:00;12.13;;;7.53;;
72929;SDS011;61073;54.260;20.816;2023-01-09T18:00:28;14.63;;;8.23;;
72929;SDS011;61073;54.260;20.816;2023-01-09T18:02:56;13.75;;;8.07;;
72929;SDS011;61073;54.260;20.816;2023-01-09T18:05:23;15.82;;;8.07;;
72929;SDS011;61073;54.260;20.816;2023-01-09T18:07:52;16.33;;;9.10;;
72929;SDS011;61073;54.260;20.816;2023-01-09T18:10:22;18.13;;;8.43;;
72929;SDS011;61073;54.260;20.816;2023-01-09T18:12:50;16.45;;;7.70;;
72929;SDS011;61073;54.260;20.816;2023-01-09T18:15:17;15.60;;;7.93;;
72929;SDS011;61073;54.260;20.816;2023-01-09T18:17:44;14.57;;;7.07;;
72929;SDS011;61073;54.260;20.816;2023-01-09T18:20:11;12.57;;;7.10;;
72929;SDS011;61073;54.260;20.816;2023-01-09T18:22:39;15.93;;;7.55;;